createdAt,value
2017-09-02T00:00:33.168Z,11.60
2017-09-02T00:03:00.689Z,11.60
2017-09-02T00:05:28.191Z,11.60
2017-09-02T00:07:55.712Z,11.60
2017-09-02T00:10:23.221Z,11.60
2017-09-02T00:12:50.747Z,11.60
2017-09-02T00:15:18.260Z,11.60
2017-09-02T00:17:45.785Z,11.60
2017-09-02T00:20:20.181Z,11.60
2017-09-02T00:22:47.699Z,11.60
2017-09-02T00:25:15.207Z,11.60
2017-09-02T00:27:42.737Z,11.60
2017-09-02T00:30:10.248Z,11.60
2017-09-02T00:32:38.613Z,11.60
2017-09-02T00:35:06.110Z,11.60
2017-09-02T00:37:33.626Z,11.60
2017-09-02T00:40:01.151Z,11.60
2017-09-02T00:42:28.679Z,11.60
2017-09-02T00:44:56.188Z,11.50
2017-09-02T00:47:23.712Z,11.50
2017-09-02T00:49:51.219Z,11.50
2017-09-02T00:52:18.743Z,11.50
2017-09-02T00:54:46.246Z,11.50
2017-09-02T00:57:13.772Z,11.50
2017-09-02T00:59:41.271Z,11.40
2017-09-02T01:02:08.792Z,11.40
2017-09-02T01:04:36.298Z,11.50
2017-09-02T01:07:03.835Z,11.50
2017-09-02T01:09:31.334Z,11.50
2017-09-02T01:11:58.836Z,11.50
2017-09-02T01:14:26.362Z,11.50
2017-09-02T01:16:53.869Z,11.50
2017-09-02T01:19:21.391Z,11.50
2017-09-02T01:21:48.898Z,11.50
2017-09-02T01:24:16.427Z,11.50
2017-09-02T01:26:44.699Z,11.40
2017-09-02T01:29:12.218Z,11.40
2017-09-02T01:31:39.725Z,11.40
2017-09-02T01:34:07.251Z,11.40
2017-09-02T01:36:34.754Z,11.40
2017-09-02T01:39:02.275Z,11.40
2017-09-02T01:41:29.774Z,11.40
2017-09-02T01:43:57.304Z,11.40
2017-09-02T01:46:25.579Z,11.40
2017-09-02T01:48:53.107Z,11.40
2017-09-02T01:51:20.611Z,11.40
2017-09-02T01:53:48.127Z,11.50
2017-09-02T01:56:15.635Z,11.40
2017-09-02T01:58:43.159Z,11.40
2017-09-02T02:01:10.659Z,11.40
2017-09-02T02:03:38.179Z,11.40
2017-09-02T02:06:05.686Z,11.40
2017-09-02T02:08:33.182Z,11.40
2017-09-02T02:11:00.700Z,11.40
2017-09-02T02:13:28.207Z,11.30
2017-09-02T02:15:55.733Z,11.30
2017-09-02T02:18:23.231Z,11.30
2017-09-02T02:20:50.755Z,11.30
2017-09-02T02:23:18.259Z,11.30
2017-09-02T02:25:46.549Z,11.30
2017-09-02T02:28:14.059Z,11.30
2017-09-02T02:30:41.579Z,11.20
2017-09-02T02:33:09.079Z,11.20
2017-09-02T02:35:36.607Z,11.30
2017-09-02T02:38:04.111Z,11.30
2017-09-02T02:40:31.631Z,11.30
2017-09-02T02:42:59.140Z,11.20
2017-09-02T02:45:26.663Z,11.20
2017-09-02T02:47:54.172Z,11.20
2017-09-02T02:50:21.699Z,11.20
2017-09-02T02:52:49.205Z,11.20
2017-09-02T02:55:16.728Z,11.10
2017-09-02T02:57:44.231Z,11.10
2017-09-02T03:00:11.755Z,11.10
2017-09-02T03:02:39.264Z,11.10
2017-09-02T03:05:06.792Z,11.20
2017-09-02T03:07:34.298Z,11.10
2017-09-02T03:10:01.799Z,11.10
2017-09-02T03:12:29.320Z,11.10
2017-09-02T03:14:56.832Z,11.10
2017-09-02T03:17:24.356Z,11.10
2017-09-02T03:19:52.635Z,11.00
2017-09-02T03:22:20.164Z,10.90
2017-09-02T03:24:47.683Z,11.00
2017-09-02T03:27:15.211Z,11.00
2017-09-02T03:29:42.710Z,10.90
2017-09-02T03:32:10.231Z,10.90
2017-09-02T03:34:37.735Z,10.90
2017-09-02T03:37:05.416Z,10.90
2017-09-02T03:39:32.948Z,10.90
2017-09-02T03:42:00.476Z,10.90
2017-09-02T03:44:27.992Z,10.80
2017-09-02T03:46:55.512Z,10.80
2017-09-02T03:49:23.025Z,10.80
2017-09-02T03:51:50.552Z,10.70
2017-09-02T03:54:18.063Z,10.70
2017-09-02T03:56:45.592Z,10.70
2017-09-02T03:59:13.091Z,10.70
2017-09-02T04:01:40.606Z,10.70
2017-09-02T04:04:08.118Z,10.70
2017-09-02T04:06:35.636Z,10.70
2017-09-02T04:09:03.909Z,10.70
2017-09-02T04:11:31.427Z,10.60
2017-09-02T04:13:58.942Z,10.60
2017-09-02T04:16:26.449Z,10.70
2017-09-02T04:18:53.972Z,10.60
2017-09-02T04:21:21.486Z,10.60
2017-09-02T04:23:49.011Z,10.60
2017-09-02T04:26:16.515Z,10.60
2017-09-02T04:28:44.039Z,10.60
2017-09-02T04:31:11.543Z,10.60
2017-09-02T04:33:39.832Z,10.50
2017-09-02T04:36:07.335Z,10.50
2017-09-02T04:38:34.851Z,10.60
2017-09-02T04:41:02.359Z,10.50
2017-09-02T04:43:29.883Z,10.60
2017-09-02T04:45:57.387Z,10.60
2017-09-02T04:48:24.919Z,10.60
2017-09-02T04:50:52.426Z,10.50
2017-09-02T04:53:19.949Z,10.50
2017-09-02T04:55:47.450Z,10.50
2017-09-02T04:58:14.976Z,10.50
2017-09-02T05:00:42.491Z,10.50
2017-09-02T05:03:10.115Z,10.50
2017-09-02T05:05:37.611Z,10.50
2017-09-02T05:08:05.139Z,10.50
2017-09-02T05:10:32.643Z,10.50
2017-09-02T05:13:00.172Z,10.50
2017-09-02T05:15:27.678Z,10.50
2017-09-02T05:17:55.178Z,10.60
2017-09-02T05:20:22.698Z,10.60
2017-09-02T05:22:50.204Z,10.60
2017-09-02T05:25:17.730Z,10.60
2017-09-02T05:27:45.232Z,10.50
2017-09-02T05:30:12.754Z,10.50
2017-09-02T05:32:40.258Z,10.50
2017-09-02T05:35:07.779Z,10.50
2017-09-02T05:37:35.291Z,10.50
2017-09-02T05:40:02.816Z,10.50
2017-09-02T05:42:30.322Z,10.50
2017-09-02T05:44:57.849Z,10.50
2017-09-02T05:47:25.358Z,10.60
2017-09-02T05:49:52.885Z,10.50
2017-09-02T05:52:20.395Z,10.60
2017-09-02T05:54:47.923Z,10.50
2017-09-02T05:57:15.428Z,10.50
2017-09-02T05:59:42.952Z,10.50
2017-09-02T06:02:11.223Z,10.50
2017-09-02T06:04:38.739Z,10.50
2017-09-02T06:07:06.243Z,10.50
2017-09-02T06:09:33.771Z,10.50
2017-09-02T06:12:01.270Z,10.50
2017-09-02T06:14:28.798Z,10.50
2017-09-02T06:16:56.313Z,10.50
2017-09-02T06:19:23.820Z,10.50
2017-09-02T06:21:51.343Z,10.50
2017-09-02T06:24:18.850Z,10.40
2017-09-02T06:26:46.371Z,10.40
2017-09-02T06:29:13.866Z,10.40
2017-09-02T06:31:41.388Z,10.40
2017-09-02T06:34:08.887Z,10.50
2017-09-02T06:36:36.423Z,10.50
2017-09-02T06:39:03.932Z,10.50
2017-09-02T06:41:31.462Z,10.50
2017-09-02T06:43:59.740Z,10.50
2017-09-02T06:46:27.272Z,10.50
2017-09-02T06:48:54.778Z,10.60
2017-09-02T06:51:22.308Z,10.60
2017-09-02T06:53:49.824Z,10.60
2017-09-02T06:56:17.347Z,10.70
2017-09-02T06:58:44.861Z,10.70
2017-09-02T07:01:12.388Z,10.70
2017-09-02T07:03:39.887Z,10.70
2017-09-02T07:06:07.411Z,10.70
2017-09-02T07:08:34.916Z,10.60
2017-09-02T07:11:02.516Z,10.70
2017-09-02T07:13:30.015Z,10.60
2017-09-02T07:15:57.543Z,10.70
2017-09-02T07:18:25.053Z,10.70
2017-09-02T07:20:52.558Z,10.70
2017-09-02T07:23:20.070Z,10.90
2017-09-02T07:25:47.571Z,10.80
2017-09-02T07:28:15.088Z,10.80
2017-09-02T07:30:42.596Z,10.70
2017-09-02T07:33:10.114Z,10.80
2017-09-02T07:35:37.614Z,10.60
2017-09-02T07:38:05.135Z,10.70
2017-09-02T07:40:32.635Z,10.70
2017-09-02T07:43:00.150Z,10.60
2017-09-02T07:45:27.655Z,10.70
2017-09-02T07:47:55.179Z,10.70
2017-09-02T07:50:22.680Z,10.70
2017-09-02T07:52:50.199Z,10.70
2017-09-02T07:55:17.699Z,10.70
2017-09-02T07:57:45.211Z,10.60
2017-09-02T08:00:12.710Z,10.60
2017-09-02T08:02:40.231Z,10.60
2017-09-02T08:05:07.736Z,10.60
2017-09-02T08:07:35.251Z,10.60
2017-09-02T08:10:02.760Z,10.70
2017-09-02T08:12:30.278Z,10.80
2017-09-02T08:14:57.779Z,10.90
2017-09-02T08:17:25.303Z,10.90
2017-09-02T08:19:52.798Z,10.90
2017-09-02T08:22:20.291Z,10.90
2017-09-02T08:24:47.817Z,11.00
2017-09-02T08:27:15.315Z,11.10
2017-09-02T08:29:42.831Z,11.10
2017-09-02T08:32:10.336Z,11.00
2017-09-02T08:34:37.854Z,11.10
2017-09-02T08:37:05.359Z,11.20
2017-09-02T08:39:32.880Z,11.20
2017-09-02T08:42:00.381Z,11.20
2017-09-02T08:44:27.899Z,11.30
2017-09-02T08:46:55.395Z,11.30
2017-09-02T08:49:22.910Z,11.40
2017-09-02T08:51:50.419Z,11.30
2017-09-02T08:54:17.943Z,11.30
2017-09-02T08:56:45.446Z,11.20
2017-09-02T08:59:12.963Z,11.20
2017-09-02T09:01:40.459Z,11.20
2017-09-02T09:04:07.980Z,11.20
2017-09-02T09:06:35.479Z,11.30
2017-09-02T09:09:03.000Z,11.30
2017-09-02T09:11:30.499Z,11.30
2017-09-02T09:13:58.023Z,11.30
2017-09-02T09:16:25.527Z,11.20
2017-09-02T09:18:53.059Z,11.30
2017-09-02T09:21:20.575Z,11.30
2017-09-02T09:23:48.075Z,11.50
2017-09-02T09:26:15.599Z,11.50
2017-09-02T09:28:43.103Z,11.70
2017-09-02T09:31:10.619Z,11.90
2017-09-02T09:33:38.119Z,11.90
2017-09-02T09:36:05.636Z,12.00
2017-09-02T09:38:33.136Z,12.10
2017-09-02T09:41:00.659Z,12.10
2017-09-02T09:43:28.159Z,12.20
2017-09-02T09:45:55.680Z,12.10
2017-09-02T09:48:23.183Z,12.00
2017-09-02T09:50:50.694Z,12.10
2017-09-02T09:53:18.195Z,12.10
2017-09-02T09:55:45.706Z,12.10
2017-09-02T09:58:13.207Z,12.20
2017-09-02T10:00:40.720Z,12.40
2017-09-02T10:03:08.218Z,12.60
2017-09-02T10:05:35.736Z,12.40
2017-09-02T10:08:03.240Z,12.50
2017-09-02T10:10:30.760Z,12.70
2017-09-02T10:12:58.255Z,12.80
2017-09-02T10:15:25.771Z,12.80
2017-09-02T10:17:53.271Z,12.50
2017-09-02T10:20:20.799Z,12.60
2017-09-02T10:22:48.296Z,12.80
2017-09-02T10:25:15.796Z,12.70
2017-09-02T10:27:43.315Z,12.60
2017-09-02T10:30:10.812Z,12.70
2017-09-02T10:32:38.324Z,12.70
2017-09-02T10:35:05.819Z,12.60
2017-09-02T10:37:33.335Z,12.60
2017-09-02T10:40:00.826Z,12.50
2017-09-02T10:42:28.339Z,12.40
2017-09-02T10:44:55.840Z,12.20
2017-09-02T10:47:23.364Z,12.20
2017-09-02T10:49:50.866Z,12.30
2017-09-02T10:52:18.383Z,12.50
2017-09-02T10:54:45.879Z,12.50
2017-09-02T10:57:13.395Z,12.60
2017-09-02T10:59:40.887Z,12.70
2017-09-02T11:02:08.408Z,12.60
2017-09-02T11:04:35.912Z,12.80
2017-09-02T11:07:03.431Z,12.60
2017-09-02T11:09:30.927Z,12.60
2017-09-02T11:11:58.438Z,12.70
2017-09-02T11:14:25.938Z,13.10
2017-09-02T11:16:54.216Z,13.60
2017-09-02T11:19:21.710Z,13.60
2017-09-02T11:21:49.226Z,13.80
2017-09-02T11:24:16.724Z,13.60
2017-09-02T11:26:44.224Z,13.60
2017-09-02T11:29:11.739Z,13.60
2017-09-02T11:31:39.239Z,13.40
2017-09-02T11:34:06.755Z,13.60
2017-09-02T11:36:34.250Z,13.40
2017-09-02T11:39:01.763Z,13.50
2017-09-02T11:41:29.264Z,13.60
2017-09-02T11:43:56.779Z,13.80
2017-09-02T11:46:24.288Z,14.00
2017-09-02T11:48:51.807Z,14.10
2017-09-02T11:51:19.304Z,13.90
2017-09-02T11:53:46.818Z,13.60
2017-09-02T11:56:14.324Z,13.40
2017-09-02T11:58:41.856Z,13.30
2017-09-02T12:01:09.358Z,13.50
2017-09-02T12:03:37.639Z,13.80
2017-09-02T12:06:05.143Z,13.70
2017-09-02T12:08:32.655Z,13.90
2017-09-02T12:11:00.167Z,13.80
2017-09-02T12:13:27.696Z,13.60
2017-09-02T12:15:55.196Z,13.10
2017-09-02T12:18:22.718Z,12.90
2017-09-02T12:20:50.219Z,12.70
2017-09-02T12:23:17.751Z,12.60
2017-09-02T12:25:45.252Z,12.50
2017-09-02T12:28:12.747Z,12.60
2017-09-02T12:30:40.263Z,12.60
2017-09-02T12:33:07.768Z,12.60
2017-09-02T12:35:35.278Z,12.60
2017-09-02T12:38:03.543Z,12.40
2017-09-02T12:40:31.063Z,12.40
2017-09-02T12:42:58.555Z,12.40
2017-09-02T12:45:26.068Z,12.20
2017-09-02T12:47:53.579Z,12.20
2017-09-02T12:50:21.092Z,12.20
2017-09-02T12:52:48.591Z,12.10
2017-09-02T12:55:16.110Z,12.10
2017-09-02T12:57:43.603Z,12.10
2017-09-02T13:00:11.114Z,12.10
2017-09-02T13:02:38.610Z,12.20
2017-09-02T13:05:06.131Z,12.30
2017-09-02T13:07:33.629Z,12.50
2017-09-02T13:10:01.147Z,12.50
2017-09-02T13:12:28.644Z,12.60
2017-09-02T13:14:56.160Z,12.60
2017-09-02T13:17:23.659Z,12.70
2017-09-02T13:19:51.181Z,12.70
2017-09-02T13:22:18.679Z,12.90
2017-09-02T13:24:46.211Z,13.00
2017-09-02T13:27:13.707Z,13.10
2017-09-02T13:29:41.203Z,13.00
2017-09-02T13:32:08.714Z,13.00
2017-09-02T13:34:36.211Z,13.00
2017-09-02T13:37:03.731Z,12.90
2017-09-02T13:39:31.229Z,12.80
2017-09-02T13:41:58.742Z,12.70
2017-09-02T13:44:26.249Z,12.60
2017-09-02T13:46:53.758Z,12.60
2017-09-02T13:49:21.259Z,12.70
2017-09-02T13:51:48.779Z,12.80
2017-09-02T13:54:16.288Z,12.80
2017-09-02T13:56:43.808Z,12.80
2017-09-02T13:59:11.307Z,12.80
2017-09-02T14:01:38.820Z,12.70
2017-09-02T14:04:06.315Z,12.50
2017-09-02T14:06:33.835Z,12.40
2017-09-02T14:09:01.331Z,12.40
2017-09-02T14:11:28.843Z,12.30
2017-09-02T14:13:56.343Z,12.30
2017-09-02T14:16:23.866Z,12.30
2017-09-02T14:18:51.358Z,12.20
2017-09-02T14:21:18.983Z,12.20
2017-09-02T14:23:46.485Z,12.10
2017-09-02T14:26:14.006Z,11.90
2017-09-02T14:28:41.503Z,11.90
2017-09-02T14:31:09.003Z,11.80
2017-09-02T14:33:36.520Z,11.80
2017-09-02T14:36:04.025Z,11.80
2017-09-02T14:38:31.547Z,11.80
2017-09-02T14:40:59.047Z,11.80
2017-09-02T14:43:26.558Z,11.80
2017-09-02T14:45:54.051Z,11.80
2017-09-02T14:48:21.563Z,11.70
2017-09-02T14:50:49.063Z,11.80
2017-09-02T14:53:16.571Z,11.80
2017-09-02T14:55:44.066Z,11.90
2017-09-02T14:58:11.583Z,11.90
2017-09-02T15:00:39.083Z,11.90
2017-09-02T15:03:06.596Z,12.10
2017-09-02T15:05:34.099Z,12.10
2017-09-02T15:08:01.615Z,12.10
2017-09-02T15:10:29.115Z,12.10
2017-09-02T15:12:56.631Z,12.10
2017-09-02T15:15:24.131Z,12.10
2017-09-02T15:17:51.646Z,12.00
2017-09-02T15:20:19.146Z,12.00
2017-09-02T15:22:46.658Z,12.10
2017-09-02T15:25:14.158Z,12.00
2017-09-02T15:27:41.674Z,11.80
2017-09-02T15:30:09.170Z,11.70
2017-09-02T15:32:36.678Z,11.70
2017-09-02T15:35:04.199Z,11.50
2017-09-02T15:37:31.704Z,11.60
2017-09-02T15:39:59.228Z,11.50
2017-09-02T15:42:26.727Z,11.60
2017-09-02T15:44:54.243Z,11.60
2017-09-02T15:47:21.739Z,11.70
2017-09-02T15:49:49.260Z,11.60
2017-09-02T15:52:16.754Z,11.50
2017-09-02T15:54:44.268Z,11.50
2017-09-02T15:57:11.772Z,11.50
2017-09-02T15:59:39.291Z,11.50
2017-09-02T16:02:06.791Z,11.40
2017-09-02T16:04:34.308Z,11.40
2017-09-02T16:07:01.816Z,11.40
2017-09-02T16:09:29.330Z,11.30
2017-09-02T16:11:56.823Z,11.30
2017-09-02T16:14:24.338Z,11.20
2017-09-02T16:16:51.835Z,11.20
2017-09-02T16:19:19.356Z,11.20
2017-09-02T16:21:46.852Z,11.10
2017-09-02T16:24:14.379Z,11.10
2017-09-02T16:26:41.879Z,11.10
2017-09-02T16:29:09.391Z,11.10
2017-09-02T16:31:36.883Z,11.10
2017-09-02T16:34:04.376Z,11.10
2017-09-02T16:36:31.890Z,11.10
2017-09-02T16:39:00.150Z,11.00
2017-09-02T16:41:27.663Z,11.00
2017-09-02T16:43:55.160Z,11.00
2017-09-02T16:46:22.671Z,10.90
2017-09-02T16:48:50.168Z,10.90
2017-09-02T16:51:17.683Z,10.80
2017-09-02T16:53:45.179Z,10.80
2017-09-02T16:56:12.696Z,10.60
2017-09-02T16:58:40.200Z,10.60
2017-09-02T17:01:07.729Z,10.60
2017-09-02T17:03:35.232Z,10.60
2017-09-02T17:06:02.755Z,10.60
2017-09-02T17:08:30.260Z,10.50
2017-09-02T17:10:57.774Z,10.60
2017-09-02T17:13:25.279Z,10.60
2017-09-02T17:15:53.567Z,10.60
2017-09-02T17:18:21.075Z,10.60
2017-09-02T17:20:48.599Z,10.50
2017-09-02T17:23:16.108Z,10.60
2017-09-02T17:25:43.635Z,10.60
2017-09-02T17:28:11.143Z,10.60
2017-09-02T17:30:38.668Z,10.60
2017-09-02T17:33:06.170Z,10.70
2017-09-02T17:35:33.667Z,10.70
2017-09-02T17:38:01.192Z,10.70
2017-09-02T17:40:28.696Z,10.70
2017-09-02T17:42:56.213Z,10.70
2017-09-02T17:45:23.720Z,10.70
2017-09-02T17:47:51.240Z,10.70
2017-09-02T17:50:18.748Z,10.70
2017-09-02T17:52:46.267Z,10.70
2017-09-02T17:55:13.767Z,10.70
2017-09-02T17:57:41.291Z,10.70
2017-09-02T18:00:08.790Z,10.70
2017-09-02T18:02:36.315Z,10.70
2017-09-02T18:05:03.815Z,10.70
2017-09-02T18:07:31.343Z,10.80
2017-09-02T18:09:58.843Z,10.70
2017-09-02T18:12:26.362Z,10.80
2017-09-02T18:14:53.871Z,10.80
2017-09-02T18:17:21.391Z,10.80
2017-09-02T18:19:48.896Z,10.80
2017-09-02T18:22:16.416Z,10.80
2017-09-02T18:24:43.919Z,10.80
2017-09-02T18:27:11.443Z,10.80
2017-09-02T18:29:38.947Z,10.70
2017-09-02T18:32:06.468Z,10.70
2017-09-02T18:34:33.980Z,10.70
2017-09-02T18:37:01.487Z,10.70
2017-09-02T18:39:29.002Z,10.60
2017-09-02T18:41:56.517Z,10.60
2017-09-02T18:44:24.039Z,10.60
2017-09-02T18:46:51.538Z,10.60
2017-09-02T18:49:19.050Z,10.60
2017-09-02T18:51:46.554Z,10.60
2017-09-02T18:54:14.071Z,10.60
2017-09-02T18:56:41.579Z,10.60
2017-09-02T18:59:09.091Z,10.60
2017-09-02T19:01:36.604Z,10.60
2017-09-02T19:04:04.125Z,10.60
2017-09-02T19:06:31.628Z,10.60
2017-09-02T19:08:59.152Z,10.60
2017-09-02T19:11:26.650Z,10.50
2017-09-02T19:13:54.172Z,10.50
2017-09-02T19:16:21.680Z,10.50
2017-09-02T19:18:49.199Z,10.50
2017-09-02T19:21:16.694Z,10.50
2017-09-02T19:23:44.210Z,10.50
2017-09-02T19:26:11.707Z,10.50
2017-09-02T19:28:39.230Z,10.50
2017-09-02T19:31:06.736Z,10.40
2017-09-02T19:33:34.254Z,10.40
2017-09-02T19:36:01.759Z,10.40
2017-09-02T19:38:30.030Z,10.40
2017-09-02T19:40:57.554Z,10.40
2017-09-02T19:43:25.054Z,10.50
2017-09-02T19:45:52.587Z,10.40
2017-09-02T19:48:20.091Z,10.40
2017-09-02T19:50:47.611Z,10.40
2017-09-02T19:53:15.107Z,10.40
2017-09-02T19:55:42.631Z,10.50
2017-09-02T19:58:10.135Z,10.40
2017-09-02T20:00:37.650Z,10.40
2017-09-02T20:03:05.163Z,10.40
2017-09-02T20:05:32.682Z,10.40
2017-09-02T20:08:00.198Z,10.40
2017-09-02T20:10:28.340Z,10.40
2017-09-02T20:12:55.854Z,10.40
2017-09-02T20:15:23.380Z,10.40
2017-09-02T20:17:50.882Z,10.40
2017-09-02T20:20:18.403Z,10.40
2017-09-02T20:22:45.910Z,10.40
2017-09-02T20:25:13.434Z,10.30
2017-09-02T20:27:40.940Z,10.30
2017-09-02T20:30:08.459Z,10.30
2017-09-02T20:32:35.963Z,10.30
2017-09-02T20:35:03.480Z,10.30
2017-09-02T20:37:30.980Z,10.30
2017-09-02T20:39:58.505Z,10.20
2017-09-02T20:42:26.030Z,10.20
2017-09-02T20:44:53.537Z,10.20
2017-09-02T20:47:21.064Z,10.20
2017-09-02T20:49:48.562Z,10.20
2017-09-02T20:52:16.081Z,10.20
2017-09-02T20:54:43.587Z,10.10
2017-09-02T20:57:11.107Z,10.10
2017-09-02T20:59:38.635Z,10.20
2017-09-02T21:02:06.165Z,10.10
2017-09-02T21:04:33.667Z,10.10
2017-09-02T21:07:01.183Z,10.10
2017-09-02T21:09:28.686Z,10.10
2017-09-02T21:11:56.207Z,10.10
2017-09-02T21:14:23.706Z,10.00
2017-09-02T21:16:51.231Z,10.00
2017-09-02T21:19:18.735Z,10.10
2017-09-02T21:21:46.258Z,10.00
2017-09-02T21:24:13.758Z,10.10
2017-09-02T21:26:41.280Z,10.00
2017-09-02T21:29:08.782Z,10.00
2017-09-02T21:31:36.303Z,10.00
2017-09-02T21:34:03.807Z,10.00
2017-09-02T21:36:31.327Z,10.00
2017-09-02T21:38:58.827Z,10.00
2017-09-02T21:41:26.348Z,10.00
2017-09-02T21:43:53.863Z,10.00
2017-09-02T21:46:21.368Z,10.00
2017-09-02T21:48:48.895Z,10.00
2017-09-02T21:51:16.399Z,10.00
2017-09-02T21:53:43.918Z,10.00
2017-09-02T21:56:11.423Z,10.00
2017-09-02T21:58:38.943Z,10.00
2017-09-02T22:01:06.446Z,10.00
2017-09-02T22:03:33.966Z,10.00
2017-09-02T22:06:01.476Z,10.00
2017-09-02T22:08:28.999Z,10.00
2017-09-02T22:10:56.504Z,10.00
2017-09-02T22:13:24.022Z,10.00
2017-09-02T22:15:51.529Z,9.90
2017-09-02T22:18:19.044Z,9.90
2017-09-02T22:20:46.543Z,9.90
2017-09-02T22:23:14.059Z,9.90
2017-09-02T22:25:41.563Z,9.90
2017-09-02T22:28:09.078Z,9.90
2017-09-02T22:30:36.583Z,9.90
2017-09-02T22:33:04.095Z,9.90
2017-09-02T22:35:31.607Z,9.90
2017-09-02T22:37:59.135Z,9.90
2017-09-02T22:40:27.858Z,9.80
2017-09-02T22:42:55.396Z,9.80
2017-09-02T22:45:22.899Z,9.80
2017-09-02T22:47:51.158Z,9.70
2017-09-02T22:50:18.671Z,9.70
2017-09-02T22:52:46.172Z,9.70
2017-09-02T22:55:13.686Z,9.80
2017-09-02T22:57:41.183Z,9.70
2017-09-02T23:00:08.695Z,9.70
2017-09-02T23:02:36.196Z,9.70
2017-09-02T23:05:03.710Z,9.70
2017-09-02T23:07:31.215Z,9.70
2017-09-02T23:09:58.731Z,9.70
2017-09-02T23:12:26.235Z,9.70
2017-09-02T23:14:53.747Z,9.70
2017-09-02T23:17:21.247Z,9.70
2017-09-02T23:19:48.767Z,9.70
2017-09-02T23:22:16.271Z,9.70
2017-09-02T23:24:43.786Z,9.70
2017-09-02T23:27:11.284Z,9.60
2017-09-02T23:29:38.798Z,9.70
2017-09-02T23:32:06.300Z,9.60
2017-09-02T23:34:33.815Z,9.70
2017-09-02T23:37:01.316Z,9.60
2017-09-02T23:39:28.831Z,9.60
2017-09-02T23:41:56.327Z,9.60
2017-09-02T23:44:23.854Z,9.60
2017-09-02T23:46:51.354Z,9.60
2017-09-02T23:49:18.858Z,9.60
2017-09-02T23:51:46.374Z,9.60
2017-09-02T23:54:13.872Z,9.60
2017-09-02T23:56:41.394Z,9.60
2017-09-02T23:59:08.903Z,9.60
